Time;durP1;ratioP1;P1;durP2;ratioP2;P2;SDS_P1;SDS_P2;PMS_P1;PMS_P2;Temp;Humidity;BMP_temperature;BMP_pressure;BME280_temperature;BME280_humidity;BME280_pressure;Samples;Min_cycle;Max_cycle;Signal;HPM_P1;HPM_P2
2023/09/14 00:08:58;;;;;;;12.3;8.3;;;;;;;19.86;81.71;;;;;
2023/09/14 00:19:58;;;;;;;12.3;8.3;;;;;;;19.71;82.14;;;;;
2023/09/14 00:30:58;;;;;;;10;7.3;;;;;;;19.62;82.21;;;;;
2023/09/14 00:40:58;;;;;;;10;7.3;;;;;;;19.48;83.09;;;;;
2023/09/14 00:51:58;;;;;;;9.7;7;;;;;;;19.38;84.2;;;;;
2023/09/14 01:02:58;;;;;;;9.7;7;;;;;;;19.31;84.64;;;;;
2023/09/14 01:12:58;;;;;;;9.7;7;;;;;;;19.24;84.88;;;;;
2023/09/14 01:22:58;;;;;;;15.1;9.6;;;;;;;19.25;85.21;;;;;
2023/09/14 01:33:58;;;;;;;15.1;9.6;;;;;;;19.34;85.26;;;;;
2023/09/14 01:43:58;;;;;;;15.1;9.6;;;;;;;19.41;85.64;;;;;
2023/09/14 01:54:58;;;;;;;15.8;9.7;;;;;;;19.38;86.22;;;;;
2023/09/14 02:05:58;;;;;;;15.8;9.7;;;;;;;19.52;86.06;;;;;
2023/09/14 02:15:58;;;;;;;15.8;9.7;;;;;;;19.5;86.45;;;;;
2023/09/14 02:26:58;;;;;;;13.5;9.5;;;;;;;19.5;87.04;;;;;
2023/09/14 02:36:58;;;;;;;13.5;9.5;;;;;;;19.33;87.75;;;;;
2023/09/14 02:47:58;;;;;;;13.5;9.5;;;;;;;19.25;86.79;;;;;
2023/09/14 02:57:58;;;;;;;10.9;7.4;;;;;;;19.36;86.35;;;;;
2023/09/14 03:08:58;;;;;;;10.9;7.4;;;;;;;19.31;86.5;;;;;
2023/09/14 03:19:59;;;;;;;10.9;7.4;;;;;;;19.13;87.06;;;;;
2023/09/14 03:29:58;;;;;;;9.4;6.3;;;;;;;19.06;86.85;;;;;
2023/09/14 03:40:58;;;;;;;9.4;6.3;;;;;;;19.06;87.3;;;;;
2023/09/14 03:51:00;;;;;;;9.4;6.3;;;;;;;18.95;88.54;;;;;
2023/09/14 04:01:58;;;;;;;14.7;10.5;;;;;;;18.95;88.3;;;;;
2023/09/14 04:11:58;;;;;;;14.7;10.5;;;;;;;18.9;87.33;;;;;
2023/09/14 04:22:58;;;;;;;14.7;8.3;;;;;;;18.87;87.08;;;;;
2023/09/14 04:32:58;;;;;;;14.7;8.3;;;;;;;18.79;87.33;;;;;
2023/09/14 04:43:58;;;;;;;14.7;8.3;;;;;;;18.85;87.51;;;;;
2023/09/14 04:53:58;;;;;;;10.8;5.7;;;;;;;18.99;86.99;;;;;
2023/09/14 05:03:59;;;;;;;10.8;5.7;;;;;;;19.11;86.73;;;;;
2023/09/14 05:14:58;;;;;;;10.8;5.7;;;;;;;19;87.32;;;;;
2023/09/14 05:24:58;;;;;;;13.2;8.4;;;;;;;19.01;87.27;;;;;
2023/09/14 05:35:58;;;;;;;13.2;8.4;;;;;;;18.71;87.95;;;;;
2023/09/14 05:46:01;;;;;;;13.2;8.4;;;;;;;18.68;87.98;;;;;
2023/09/14 05:56:58;;;;;;;13.8;9.1;;;;;;;18.61;88.18;;;;;
2023/09/14 06:06:58;;;;;;;13.8;9.1;;;;;;;18.48;88.08;;;;;
2023/09/14 06:16:58;;;;;;;13.8;9.1;;;;;;;18.55;88.69;;;;;
2023/09/14 06:27:58;;;;;;;13.8;8.8;;;;;;;18.51;89.33;;;;;
2023/09/14 06:38:58;;;;;;;13.8;8.8;;;;;;;18.94;88.29;;;;;
2023/09/14 06:48:58;;;;;;;13.8;8.8;;;;;;;19.13;88.24;;;;;
2023/09/14 07:00:00;;;;;;;11.5;7.4;;;;;;;19.1;87.68;;;;;
2023/09/14 07:10:58;;;;;;;11.5;7.4;;;;;;;19.26;87.31;;;;;
2023/09/14 07:21:58;;;;;;;11.5;7.4;;;;;;;19.23;86.32;;;;;
2023/09/14 07:32:58;;;;;;;12;7.8;;;;;;;19.11;84.39;;;;;
2023/09/14 07:42:58;;;;;;;12;7.8;;;;;;;18.75;83.16;;;;;
2023/09/14 07:52:58;;;;;;;8.5;5.4;;;;;;;18.56;84.15;;;;;
2023/09/14 08:03:58;;;;;;;8.5;5.4;;;;;;;18.62;84.17;;;;;
2023/09/14 08:13:59;;;;;;;8.5;5.4;;;;;;;18.66;83.02;;;;;
2023/09/14 08:23:58;;;;;;;9.1;5.1;;;;;;;18.83;82.66;;;;;
2023/09/14 08:34:58;;;;;;;9.1;5.1;;;;;;;19.21;81.29;;;;;
2023/09/14 08:44:59;;;;;;;9.1;5.1;;;;;;;19.55;79.45;;;;;
2023/09/14 08:55:58;;;;;;;4.9;3.5;;;;;;;19.78;77.39;;;;;
2023/09/14 09:05:59;;;;;;;4.9;3.5;;;;;;;19.88;76.91;;;;;
2023/09/14 09:16:59;;;;;;;4.9;3.5;;;;;;;19.75;76.17;;;;;
2023/09/14 09:26:59;;;;;;;4.6;2.2;;;;;;;20.22;75.07;;;;;
2023/09/14 09:37:58;;;;;;;4.6;2.2;;;;;;;19.92;73.73;;;;;
2023/09/14 09:47:58;;;;;;;4.6;2.2;;;;;;;19.65;74.88;;;;;
2023/09/14 09:57:59;;;;;;;6.1;2.2;;;;;;;19.68;75.43;;;;;
2023/09/14 10:08:59;;;;;;;6.1;2.2;;;;;;;19.91;74.9;;;;;
2023/09/14 10:19:58;;;;;;;6.1;2.2;;;;;;;20.03;73.41;;;;;
2023/09/14 10:30:58;;;;;;;4.3;2.3;;;;;;;20.09;73.79;;;;;
2023/09/14 10:41:58;;;;;;;4.3;2.3;;;;;;;20.19;74.51;;;;;
2023/09/14 10:51:58;;;;;;;4.3;2.3;;;;;;;20.1;73.37;;;;;
2023/09/14 11:01:41;;;;;;;5.1;2.5;;;;;;;20.05;73.4;;;;;
2023/09/14 11:11:42;;;;;;;5.1;2.5;;;;;;;20.06;74.45;;;;;
2023/09/14 11:21:43;;;;;;;5.1;2.5;;;;;;;20.19;73.64;;;;;
2023/09/14 11:31:42;;;;;;;5.8;2.7;;;;;;;20.46;73.08;;;;;
2023/09/14 11:42:41;;;;;;;5.8;2.7;;;;;;;20.3;73.96;;;;;
2023/09/14 11:52:41;;;;;;;8.9;6.2;;;;;;;20.56;72.99;;;;;
2023/09/14 12:02:41;;;;;;;8.9;6.2;;;;;;;20.58;72.7;;;;;
2023/09/14 12:13:43;;;;;;;8.9;6.2;;;;;;;20.68;72.82;;;;;
2023/09/14 12:23:42;;;;;;;9.7;6.8;;;;;;;20.72;74.03;;;;;
2023/09/14 12:34:41;;;;;;;9.7;6.8;;;;;;;20.58;72.45;;;;;
2023/09/14 12:44:42;;;;;;;9.7;6.8;;;;;;;20.68;73.43;;;;;
2023/09/14 12:54:42;;;;;;;9.7;6.4;;;;;;;20.62;74.31;;;;;
2023/09/14 13:05:41;;;;;;;9.7;6.4;;;;;;;20.43;75.47;;;;;
2023/09/14 13:16:42;;;;;;;9.7;6.4;;;;;;;20.33;74.45;;;;;
2023/09/14 13:27:42;;;;;;;13.7;7.7;;;;;;;20.55;76.49;;;;;
2023/09/14 13:37:42;;;;;;;13.7;7.7;;;;;;;20.69;74.77;;;;;
2023/09/14 13:47:41;;;;;;;13.7;7.7;;;;;;;20.91;73.57;;;;;
2023/09/14 13:58:41;;;;;;;11.4;7.2;;;;;;;21.03;74.18;;;;;
2023/09/14 14:08:42;;;;;;;11.4;7.2;;;;;;;21.25;74.88;;;;;
2023/09/14 14:19:41;;;;;;;11.4;7.2;;;;;;;21.14;75.05;;;;;
2023/09/14 14:29:41;;;;;;;11.2;7.8;;;;;;;21.28;75.18;;;;;
2023/09/14 14:39:41;;;;;;;11.2;7.8;;;;;;;21.06;75.15;;;;;
2023/09/14 14:49:42;;;;;;;11.2;7.8;;;;;;;21.04;75.71;;;;;
2023/09/14 15:00:41;;;;;;;13.8;8.2;;;;;;;20.74;76.41;;;;;
2023/09/14 15:10:42;;;;;;;13.8;8.2;;;;;;;20.58;77.19;;;;;
2023/09/14 15:20:42;;;;;;;13.8;8.2;;;;;;;20.5;77.12;;;;;
2023/09/14 15:30:42;;;;;;;10.3;8.1;;;;;;;20.36;75.73;;;;;
2023/09/14 15:41:42;;;;;;;10.3;8.1;;;;;;;20;74.7;;;;;
2023/09/14 15:52:42;;;;;;;12;5.5;;;;;;;19.73;75.69;;;;;
2023/09/14 16:02:42;;;;;;;12;5.5;;;;;;;19.57;75.59;;;;;
2023/09/14 16:13:42;;;;;;;12;5.5;;;;;;;19.44;75.64;;;;;
2023/09/14 16:23:42;;;;;;;6.8;3.4;;;;;;;19.31;75.66;;;;;
2023/09/14 16:34:42;;;;;;;6.8;3.4;;;;;;;19.1;76.57;;;;;
2023/09/14 16:44:42;;;;;;;6.8;3.4;;;;;;;18.98;77.32;;;;;
2023/09/14 16:55:42;;;;;;;8.3;3.7;;;;;;;18.88;77.64;;;;;
2023/09/14 17:05:42;;;;;;;8.3;3.7;;;;;;;18.8;77.43;;;;;
2023/09/14 17:15:42;;;;;;;8.3;3.7;;;;;;;18.66;77.17;;;;;
2023/09/14 17:26:42;;;;;;;12.2;4.8;;;;;;;18.36;77.81;;;;;
2023/09/14 17:37:41;;;;;;;12.2;4.8;;;;;;;18.17;78.91;;;;;
2023/09/14 17:47:42;;;;;;;12.2;4.8;;;;;;;18.07;79.8;;;;;
2023/09/14 17:57:43;;;;;;;5.9;3.2;;;;;;;18.05;80.44;;;;;
2023/09/14 18:08:42;;;;;;;5.9;3.2;;;;;;;17.94;80.53;;;;;
2023/09/14 18:19:42;;;;;;;5.9;3.2;;;;;;;17.84;81.31;;;;;
2023/09/14 18:29:42;;;;;;;6;3.2;;;;;;;17.85;81.12;;;;;
2023/09/14 18:39:42;;;;;;;6;3.2;;;;;;;17.88;81.54;;;;;
2023/09/14 18:50:42;;;;;;;6;3.2;;;;;;;17.77;82.02;;;;;
2023/09/14 19:00:42;;;;;;;8.8;4.6;;;;;;;17.74;82.33;;;;;
2023/09/14 19:11:43;;;;;;;8.8;4.6;;;;;;;17.72;82.53;;;;;
2023/09/14 19:22:42;;;;;;;8;5.1;;;;;;;17.68;82.34;;;;;
2023/09/14 19:32:42;;;;;;;8;5.1;;;;;;;17.65;82.1;;;;;
2023/09/14 19:42:42;;;;;;;8;5.1;;;;;;;17.65;82.54;;;;;
2023/09/14 19:53:42;;;;;;;8.9;5.2;;;;;;;17.61;82.56;;;;;
2023/09/14 20:03:42;;;;;;;8.9;5.2;;;;;;;17.55;82.75;;;;;
2023/09/14 20:13:42;;;;;;;8.9;5.2;;;;;;;17.53;82.3;;;;;
2023/09/14 20:24:43;;;;;;;8.1;4.6;;;;;;;17.46;82.49;;;;;
2023/09/14 20:34:42;;;;;;;8.1;4.6;;;;;;;17.49;82.17;;;;;
2023/09/14 20:44:42;;;;;;;8.1;4.6;;;;;;;17.46;82.18;;;;;
2023/09/14 20:55:42;;;;;;;9.7;5.1;;;;;;;17.41;81.95;;;;;
2023/09/14 21:05:46;;;;;;;9.7;5.1;;;;;;;17.33;82.58;;;;;
2023/09/14 21:15:42;;;;;;;9.7;5.1;;;;;;;17.26;82.29;;;;;
2023/09/14 21:25:42;;;;;;;7.4;4.1;;;;;;;17.12;82.11;;;;;
2023/09/14 21:36:42;;;;;;;7.4;4.1;;;;;;;17.05;82.69;;;;;
2023/09/14 21:46:42;;;;;;;7.4;4.1;;;;;;;17.01;83.01;;;;;
2023/09/14 21:57:42;;;;;;;7.4;4.7;;;;;;;16.9;83.54;;;;;
2023/09/14 22:08:42;;;;;;;7.4;4.7;;;;;;;16.82;83.86;;;;;
2023/09/14 22:18:42;;;;;;;7.4;4.7;;;;;;;16.69;84.22;;;;;
2023/09/14 22:28:42;;;;;;;8.3;5.8;;;;;;;16.7;84.45;;;;;
2023/09/14 22:38:42;;;;;;;8.3;5.8;;;;;;;16.78;84.39;;;;;
2023/09/14 22:48:42;;;;;;;8.3;5.8;;;;;;;16.8;84.41;;;;;
2023/09/14 22:59:42;;;;;;;9.2;5.5;;;;;;;16.89;84.64;;;;;
2023/09/14 23:09:43;;;;;;;9.2;5.5;;;;;;;16.9;84.8;;;;;
2023/09/14 23:19:42;;;;;;;9.2;5.5;;;;;;;16.9;84.77;;;;;
2023/09/14 23:29:42;;;;;;;11.6;5.9;;;;;;;16.87;85.12;;;;;
2023/09/14 23:39:42;;;;;;;11.6;5.9;;;;;;;16.9;85.18;;;;;
2023/09/14 23:50:42;;;;;;;11.6;5.9;;;;;;;16.88;85.18;;;;;
